createdAt,value
2022-10-22T00:00:00.465Z,21.12
2022-10-22T00:02:32.282Z,21.18
2022-10-22T00:05:01.896Z,21.17
2022-10-22T00:07:36.051Z,21.12
2022-10-22T00:10:09.510Z,21.17
2022-10-22T00:12:43.719Z,21.33
2022-10-22T00:15:15.039Z,21.25
2022-10-22T00:17:42.133Z,21.28
2022-10-22T00:20:10.769Z,21.32
2022-10-22T00:22:37.929Z,21.30
2022-10-22T00:25:05.068Z,21.37
2022-10-22T00:27:33.097Z,21.39
2022-10-22T00:30:01.349Z,21.38
2022-10-22T00:32:28.591Z,21.42
2022-10-22T00:34:58.654Z,21.46
2022-10-22T00:37:26.039Z,21.40
2022-10-22T00:39:54.050Z,21.61
2022-10-22T00:42:27.442Z,21.73
2022-10-22T00:45:20.507Z,21.69
2022-10-22T00:48:03.278Z,21.53
2022-10-22T00:50:44.203Z,21.60
2022-10-22T00:53:29.842Z,21.53
2022-10-22T00:55:57.969Z,21.51
2022-10-22T00:58:35.047Z,21.61
2022-10-22T01:01:02.298Z,21.69
2022-10-22T01:03:29.573Z,21.84
2022-10-22T01:06:02.270Z,21.73
2022-10-22T01:08:51.892Z,21.64
2022-10-22T01:11:36.116Z,21.71
2022-10-22T01:14:33.492Z,21.59
2022-10-22T01:17:09.727Z,21.39
2022-10-22T01:20:16.789Z,21.25
2022-10-22T01:23:10.018Z,21.46
2022-10-22T01:25:46.843Z,21.44
2022-10-22T01:28:35.493Z,21.48
2022-10-22T01:31:03.559Z,21.37
2022-10-22T01:33:51.615Z,21.38
2022-10-22T01:36:23.800Z,21.39
2022-10-22T01:38:51.181Z,21.33
2022-10-22T01:41:21.480Z,21.43
2022-10-22T01:43:51.223Z,21.30
2022-10-22T01:46:23.015Z,21.39
2022-10-22T01:49:19.864Z,21.31
2022-10-22T01:52:14.682Z,21.32
2022-10-22T01:55:10.698Z,21.35
2022-10-22T01:57:56.131Z,21.31
2022-10-22T02:00:29.545Z,21.25
2022-10-22T02:03:24.738Z,21.22
2022-10-22T02:05:56.129Z,21.02
2022-10-22T02:08:31.254Z,20.93
2022-10-22T02:11:02.669Z,20.96
2022-10-22T02:13:41.296Z,20.95
2022-10-22T02:16:12.842Z,21.04
2022-10-22T02:18:57.753Z,20.93
2022-10-22T02:21:27.826Z,20.96
2022-10-22T02:23:54.757Z,20.94
2022-10-22T02:26:46.817Z,21.13
2022-10-22T02:29:32.002Z,20.91
2022-10-22T02:32:04.261Z,20.95
2022-10-22T02:34:36.744Z,20.91
2022-10-22T02:37:06.508Z,21.02
2022-10-22T02:39:41.067Z,21.05
2022-10-22T02:42:14.734Z,21.03
2022-10-22T02:44:45.878Z,21.15
2022-10-22T02:47:18.496Z,21.35
2022-10-22T02:49:53.114Z,21.51
2022-10-22T02:52:19.749Z,21.37
2022-10-22T02:54:49.559Z,21.43
2022-10-22T02:57:16.740Z,21.47
2022-10-22T02:59:43.420Z,21.66
2022-10-22T03:02:10.125Z,21.54
2022-10-22T03:04:36.847Z,21.60
2022-10-22T03:07:03.694Z,21.64
2022-10-22T03:09:30.594Z,21.50
2022-10-22T03:12:00.245Z,21.56
2022-10-22T03:14:26.901Z,21.57
2022-10-22T03:16:59.729Z,21.63
2022-10-22T03:19:27.494Z,21.60
2022-10-22T03:22:01.379Z,21.58
2022-10-22T03:24:50.508Z,21.72
2022-10-22T03:27:24.690Z,21.64
2022-10-22T03:29:54.305Z,21.63
2022-10-22T03:32:21.028Z,21.70
2022-10-22T03:34:48.106Z,21.67
2022-10-22T03:37:14.912Z,21.69
2022-10-22T03:39:42.065Z,21.59
2022-10-22T03:42:15.870Z,21.53
2022-10-22T03:44:42.505Z,21.61
2022-10-22T03:47:18.598Z,21.65
2022-10-22T03:49:48.298Z,21.65
2022-10-22T03:52:15.369Z,21.63
2022-10-22T03:54:42.821Z,21.74
2022-10-22T03:57:10.475Z,21.90
2022-10-22T03:59:44.865Z,21.82
2022-10-22T04:02:13.530Z,21.89
2022-10-22T04:04:40.715Z,21.86
2022-10-22T04:07:11.974Z,21.79
2022-10-22T04:09:41.638Z,21.90
2022-10-22T04:12:09.612Z,21.86
2022-10-22T04:14:36.688Z,21.88
2022-10-22T04:17:03.719Z,21.73
2022-10-22T04:19:30.631Z,21.67
2022-10-22T04:22:00.871Z,21.66
2022-10-22T04:24:34.613Z,21.61
2022-10-22T04:27:01.491Z,21.64
2022-10-22T04:29:37.429Z,21.83
2022-10-22T04:32:04.588Z,21.73
2022-10-22T04:34:31.494Z,21.73
2022-10-22T04:36:58.174Z,21.71
2022-10-22T04:39:27.932Z,21.73
2022-10-22T04:41:54.666Z,21.76
2022-10-22T04:44:21.499Z,21.91
2022-10-22T04:46:54.324Z,21.84
2022-10-22T04:49:21.091Z,21.73
2022-10-22T04:51:48.975Z,21.74
2022-10-22T04:54:15.900Z,21.77
2022-10-22T04:56:44.427Z,21.81
2022-10-22T04:59:15.748Z,21.74
2022-10-22T05:01:47.393Z,21.70
2022-10-22T05:04:16.339Z,21.64
2022-10-22T05:06:44.375Z,21.65
2022-10-22T05:09:16.321Z,21.83
2022-10-22T05:11:48.911Z,21.72
2022-10-22T05:14:44.678Z,21.82
2022-10-22T05:17:12.562Z,21.74
2022-10-22T05:19:39.217Z,21.83
2022-10-22T05:22:08.975Z,21.87
2022-10-22T05:24:40.871Z,21.72
2022-10-22T05:27:08.936Z,21.69
2022-10-22T05:29:37.025Z,21.66
2022-10-22T05:32:06.462Z,21.71
2022-10-22T05:34:36.205Z,21.83
2022-10-22T05:37:07.360Z,21.87
2022-10-22T05:39:40.360Z,21.82
2022-10-22T05:42:07.114Z,21.88
2022-10-22T05:44:34.058Z,21.83
2022-10-22T05:47:02.840Z,21.91
2022-10-22T05:49:29.737Z,22.01
2022-10-22T05:51:58.249Z,22.15
2022-10-22T05:54:34.423Z,21.95
2022-10-22T05:57:01.285Z,21.92
2022-10-22T05:59:28.357Z,22.06
2022-10-22T06:01:59.802Z,22.10
2022-10-22T06:04:30.736Z,22.09
2022-10-22T06:06:58.157Z,22.17
2022-10-22T06:09:33.919Z,22.04
2022-10-22T06:12:00.626Z,22.25
2022-10-22T06:14:32.775Z,22.22
2022-10-22T06:17:00.392Z,22.41
2022-10-22T06:19:29.945Z,22.23
2022-10-22T06:21:56.731Z,22.19
2022-10-22T06:24:24.348Z,22.38
2022-10-22T06:26:52.066Z,22.28
2022-10-22T06:29:18.878Z,22.28
2022-10-22T06:31:45.592Z,22.23
2022-10-22T06:34:21.515Z,22.20
2022-10-22T06:36:55.033Z,22.22
2022-10-22T06:39:21.849Z,22.24
2022-10-22T06:41:57.888Z,22.20
2022-10-22T06:44:24.766Z,22.13
2022-10-22T06:46:52.633Z,22.22
2022-10-22T06:49:21.507Z,22.27
2022-10-22T06:51:58.589Z,22.36
2022-10-22T06:54:25.262Z,22.26
2022-10-22T06:56:51.973Z,22.25
2022-10-22T06:59:18.697Z,22.25
2022-10-22T07:01:45.444Z,22.14
2022-10-22T07:04:13.265Z,22.11
2022-10-22T07:06:41.117Z,22.21
2022-10-22T07:09:08.268Z,22.11
2022-10-22T07:11:45.677Z,22.14
2022-10-22T07:14:13.232Z,22.18
2022-10-22T07:16:43.347Z,22.13
2022-10-22T07:19:10.067Z,22.12
2022-10-22T07:21:36.879Z,22.12
2022-10-22T07:24:07.175Z,22.10
2022-10-22T07:26:33.911Z,22.03
2022-10-22T07:29:01.145Z,21.99
2022-10-22T07:31:30.320Z,22.13
2022-10-22T07:33:58.567Z,22.22
2022-10-22T07:36:26.161Z,22.18
2022-10-22T07:38:58.344Z,22.08
2022-10-22T07:41:24.935Z,22.10
2022-10-22T07:43:52.990Z,22.12
2022-10-22T07:46:20.835Z,22.15
2022-10-22T07:48:49.595Z,22.26
2022-10-22T07:51:17.290Z,22.27
2022-10-22T07:53:47.066Z,22.35
2022-10-22T07:56:14.186Z,22.44
2022-10-22T07:58:41.767Z,22.49
2022-10-22T08:01:08.745Z,22.55
2022-10-22T08:03:36.086Z,22.55
2022-10-22T08:06:03.024Z,22.36
2022-10-22T08:08:33.682Z,22.31
2022-10-22T08:11:02.324Z,22.36
2022-10-22T08:13:30.930Z,22.42
2022-10-22T08:16:00.657Z,22.34
2022-10-22T08:18:28.276Z,22.29
2022-10-22T08:20:55.278Z,22.39
2022-10-22T08:23:25.947Z,22.44
2022-10-22T08:25:56.705Z,22.29
2022-10-22T08:28:23.761Z,22.24
2022-10-22T08:30:50.785Z,22.23
2022-10-22T08:33:20.683Z,22.26
2022-10-22T08:35:52.081Z,22.25
2022-10-22T08:38:19.610Z,22.28
2022-10-22T08:40:53.114Z,22.32
2022-10-22T08:44:03.881Z,22.38
2022-10-22T08:46:59.478Z,22.44
2022-10-22T08:49:38.384Z,22.74
2022-10-22T08:52:14.676Z,22.78
2022-10-22T08:54:53.086Z,22.70
2022-10-22T08:57:36.513Z,22.66
2022-10-22T09:00:36.824Z,22.60
2022-10-22T09:03:06.739Z,22.55
2022-10-22T09:05:36.954Z,22.58
2022-10-22T09:08:05.468Z,22.59
2022-10-22T09:14:18.291Z,22.59
2022-10-22T09:17:06.708Z,22.50
2022-10-22T09:20:11.085Z,22.44
2022-10-22T09:22:54.853Z,22.45
2022-10-22T09:25:27.433Z,22.52
2022-10-22T09:27:58.432Z,22.50
2022-10-22T09:30:37.939Z,22.61
2022-10-22T09:33:20.254Z,22.55
2022-10-22T09:36:05.855Z,22.50
2022-10-22T09:38:39.546Z,22.70
2022-10-22T09:41:06.772Z,22.86
2022-10-22T09:43:36.195Z,22.88
2022-10-22T09:46:06.073Z,22.94
2022-10-22T09:48:42.016Z,22.83
2022-10-22T09:51:21.833Z,22.74
2022-10-22T09:53:57.750Z,22.72
2022-10-22T09:56:36.305Z,22.81
2022-10-22T09:59:06.792Z,22.85
2022-10-22T10:01:40.995Z,22.75
2022-10-22T10:04:16.710Z,22.71
2022-10-22T10:06:45.310Z,22.81
2022-10-22T10:09:19.429Z,22.72
2022-10-22T10:11:53.550Z,22.68
2022-10-22T10:14:38.863Z,22.71
2022-10-22T10:17:11.875Z,22.79
2022-10-22T10:20:05.778Z,23.03
2022-10-22T10:22:50.873Z,23.01
2022-10-22T10:25:55.481Z,22.96
2022-10-22T10:28:57.963Z,22.88
2022-10-22T10:31:49.004Z,22.78
2022-10-22T10:34:44.027Z,22.78
2022-10-22T10:37:41.390Z,22.92
2022-10-22T10:40:28.506Z,22.85
2022-10-22T10:43:06.846Z,23.06
2022-10-22T10:45:55.782Z,22.97
2022-10-22T10:48:22.781Z,23.06
2022-10-22T10:51:15.438Z,23.09
2022-10-22T10:53:47.599Z,23.04
2022-10-22T10:56:17.194Z,23.01
2022-10-22T10:58:53.458Z,22.99
2022-10-22T11:01:51.401Z,22.92
2022-10-22T11:04:41.816Z,22.86
2022-10-22T11:07:33.551Z,22.78
2022-10-22T11:10:09.775Z,22.85
2022-10-22T11:12:44.618Z,22.80
2022-10-22T11:15:23.705Z,22.76
2022-10-22T11:17:56.184Z,22.77
2022-10-22T11:20:40.314Z,22.85
2022-10-22T11:23:37.003Z,22.96
2022-10-22T11:26:11.572Z,23.06
2022-10-22T11:28:52.837Z,23.27
2022-10-22T11:31:20.661Z,23.15
2022-10-22T11:34:32.159Z,23.16
2022-10-22T11:36:58.737Z,23.04
2022-10-22T11:40:04.021Z,23.04
2022-10-22T11:42:44.927Z,23.08
2022-10-22T11:45:15.323Z,23.00
2022-10-22T11:47:57.103Z,23.12
2022-10-22T11:50:29.398Z,23.08
2022-10-22T11:53:08.026Z,22.97
2022-10-22T11:55:49.338Z,23.14
2022-10-22T11:58:39.443Z,23.04
2022-10-22T12:01:12.305Z,23.07
2022-10-22T12:03:52.793Z,23.22
2022-10-22T12:06:23.432Z,23.19
2022-10-22T12:08:53.157Z,23.14
2022-10-22T12:11:48.663Z,23.17
2022-10-22T12:14:35.077Z,23.23
2022-10-22T12:17:12.754Z,23.41
2022-10-22T12:19:47.268Z,23.36
2022-10-22T12:22:28.347Z,23.11
2022-10-22T12:24:57.889Z,23.10
2022-10-22T12:27:41.274Z,23.03
2022-10-22T12:30:37.298Z,22.95
2022-10-22T12:33:18.376Z,23.07
2022-10-22T12:35:46.677Z,23.16
2022-10-22T12:38:18.807Z,23.39
2022-10-22T12:40:48.393Z,23.20
2022-10-22T12:43:27.990Z,23.21
2022-10-22T12:45:58.222Z,23.21
2022-10-22T12:48:34.662Z,23.32
2022-10-22T12:51:04.799Z,23.31
2022-10-22T12:53:43.677Z,23.32
2022-10-22T12:56:17.108Z,23.78
2022-10-22T12:58:58.108Z,24.12
2022-10-22T13:01:34.603Z,23.91
2022-10-22T13:04:31.060Z,23.75
2022-10-22T13:07:19.879Z,23.46
2022-10-22T13:09:59.139Z,23.32
2022-10-22T13:12:36.336Z,23.25
2022-10-22T13:15:41.560Z,23.64
2022-10-22T13:18:33.799Z,23.58
2022-10-22T13:21:04.511Z,23.45
2022-10-22T13:23:33.965Z,23.44
2022-10-22T13:26:16.538Z,23.26
2022-10-22T13:28:50.598Z,23.22
2022-10-22T13:31:25.395Z,23.26
2022-10-22T13:33:57.999Z,23.49
2022-10-22T13:36:25.097Z,23.39
2022-10-22T13:38:52.340Z,23.20
2022-10-22T13:41:27.562Z,23.26
2022-10-22T13:43:55.417Z,23.07
2022-10-22T13:46:23.813Z,23.00
2022-10-22T13:48:53.902Z,23.21
2022-10-22T13:51:31.510Z,23.06
2022-10-22T13:53:58.443Z,22.87
2022-10-22T13:56:26.156Z,22.94
2022-10-22T14:02:22.273Z,22.94
2022-10-22T14:05:03.533Z,23.03
2022-10-22T14:07:58.237Z,22.87
2022-10-22T14:10:32.112Z,23.17
2022-10-22T14:13:31.158Z,23.37
2022-10-22T14:16:29.219Z,23.47
2022-10-22T14:19:26.088Z,23.42
2022-10-22T14:21:57.209Z,23.33
2022-10-22T14:24:23.951Z,23.10
2022-10-22T14:26:50.786Z,23.18
2022-10-22T14:29:17.563Z,23.09
2022-10-22T14:31:46.735Z,22.95
2022-10-22T14:34:17.349Z,22.89
2022-10-22T14:36:45.795Z,22.84
2022-10-22T14:39:20.433Z,22.92
2022-10-22T14:41:47.786Z,22.85
2022-10-22T14:44:20.252Z,23.05
2022-10-22T14:46:48.286Z,23.10
2022-10-22T14:49:24.336Z,23.04
2022-10-22T14:51:52.005Z,23.07
2022-10-22T14:54:20.036Z,23.12
2022-10-22T14:56:46.856Z,23.14
2022-10-22T14:59:13.595Z,23.09
2022-10-22T15:01:46.076Z,23.38
2022-10-22T15:04:14.090Z,23.26
2022-10-22T15:06:41.175Z,23.20
2022-10-22T15:09:08.158Z,23.05
2022-10-22T15:11:35.118Z,23.02
2022-10-22T15:14:01.938Z,22.97
2022-10-22T15:16:30.021Z,22.87
2022-10-22T15:18:59.984Z,22.90
2022-10-22T15:21:27.455Z,23.07
2022-10-22T15:23:55.187Z,23.18
2022-10-22T15:26:24.282Z,22.97
2022-10-22T15:28:51.082Z,22.92
2022-10-22T15:31:45.652Z,22.88
2022-10-22T15:34:13.110Z,22.89
2022-10-22T15:36:42.997Z,22.86
2022-10-22T15:41:39.977Z,23.04
2022-10-22T15:44:08.760Z,23.10
2022-10-22T15:46:36.085Z,22.97
2022-10-22T15:49:03.165Z,22.81
2022-10-22T15:51:29.982Z,22.80
2022-10-22T15:53:59.013Z,22.77
2022-10-22T15:56:28.994Z,22.79
2022-10-22T15:59:03.041Z,22.76
2022-10-22T16:01:31.674Z,22.63
2022-10-22T16:04:03.612Z,22.65
2022-10-22T16:06:31.715Z,22.67
2022-10-22T16:09:01.198Z,22.69
2022-10-22T16:11:30.953Z,22.64
2022-10-22T16:13:59.418Z,22.54
2022-10-22T16:16:33.318Z,22.51
2022-10-22T16:19:10.201Z,22.49
2022-10-22T16:21:36.957Z,22.60
2022-10-22T16:24:07.954Z,22.54
2022-10-22T16:26:35.995Z,22.42
2022-10-22T16:29:07.355Z,22.40
2022-10-22T16:31:34.700Z,22.47
2022-10-22T16:34:09.857Z,22.36
2022-10-22T16:36:37.565Z,22.36
2022-10-22T16:39:06.600Z,22.39
2022-10-22T16:41:37.114Z,22.40
2022-10-22T16:44:07.808Z,22.44
2022-10-22T16:46:38.724Z,22.27
2022-10-22T16:49:08.784Z,22.23
2022-10-22T16:51:37.160Z,22.23
2022-10-22T16:54:06.800Z,22.21
2022-10-22T16:56:36.743Z,22.20
2022-10-22T16:59:03.694Z,22.27
2022-10-22T17:01:36.739Z,22.30
2022-10-22T17:04:06.413Z,22.25
2022-10-22T17:06:33.152Z,22.19
2022-10-22T17:09:00.165Z,22.25
2022-10-22T17:11:30.163Z,22.33
2022-10-22T17:13:57.291Z,22.33
2022-10-22T17:16:28.068Z,22.28
2022-10-22T17:18:57.721Z,22.17
2022-10-22T17:21:26.017Z,22.15
2022-10-22T17:23:57.342Z,22.21
2022-10-22T17:26:27.034Z,22.23
2022-10-22T17:28:56.733Z,22.28
2022-10-22T17:31:41.769Z,22.27
2022-10-22T17:34:17.605Z,22.18
2022-10-22T17:36:45.174Z,22.13
2022-10-22T17:39:17.632Z,22.13
2022-10-22T17:41:50.194Z,22.14
2022-10-22T17:44:19.133Z,22.14
2022-10-22T17:46:46.181Z,22.13
2022-10-22T17:49:17.505Z,22.07
2022-10-22T17:51:44.455Z,22.00
2022-10-22T17:54:15.037Z,21.98
2022-10-22T17:56:42.040Z,21.92
2022-10-22T17:59:12.629Z,21.94
2022-10-22T18:01:47.435Z,21.96
2022-10-22T18:04:16.519Z,22.16
2022-10-22T18:06:43.440Z,21.99
2022-10-22T18:09:18.305Z,21.93
2022-10-22T18:11:46.620Z,21.92
2022-10-22T18:14:13.595Z,21.86
2022-10-22T18:16:43.086Z,21.91
2022-10-22T18:19:25.318Z,21.95
2022-10-22T18:21:55.010Z,21.85
2022-10-22T18:24:21.860Z,21.92
2022-10-22T18:26:49.619Z,21.88
2022-10-22T18:29:18.504Z,21.85
2022-10-22T18:31:45.917Z,21.76
2022-10-22T18:34:12.711Z,21.80
2022-10-22T18:36:40.373Z,21.77
2022-10-22T18:39:07.584Z,21.84
2022-10-22T18:41:36.019Z,21.82
2022-10-22T18:44:07.743Z,21.90
2022-10-22T18:46:38.367Z,21.96
2022-10-22T18:49:07.210Z,21.79
2022-10-22T18:51:37.480Z,22.03
2022-10-22T18:54:11.591Z,21.81
2022-10-22T18:56:45.078Z,21.70
2022-10-22T18:59:23.408Z,21.71
2022-10-22T19:01:53.617Z,21.76
2022-10-22T19:04:23.803Z,21.71
2022-10-22T19:06:53.614Z,21.76
2022-10-22T19:09:20.448Z,21.67
2022-10-22T19:11:51.318Z,21.53
2022-10-22T19:14:22.672Z,21.61
2022-10-22T19:16:50.980Z,21.95
2022-10-22T19:19:20.340Z,21.76
2022-10-22T19:21:47.380Z,21.59
2022-10-22T19:24:15.859Z,21.68
2022-10-22T19:26:42.849Z,21.54
2022-10-22T19:29:14.650Z,21.49
2022-10-22T19:31:43.279Z,21.45
2022-10-22T19:34:13.520Z,21.40
2022-10-22T19:36:41.743Z,21.32
2022-10-22T19:39:15.376Z,21.29
2022-10-22T19:41:45.100Z,21.36
2022-10-22T19:44:12.968Z,21.42
2022-10-22T19:46:43.354Z,21.23
2022-10-22T19:49:11.330Z,21.13
2022-10-22T19:51:40.281Z,21.06
2022-10-22T19:54:11.852Z,20.97
2022-10-22T19:56:42.235Z,20.98
2022-10-22T19:59:09.648Z,20.91
2022-10-22T20:01:44.102Z,20.82
2022-10-22T20:04:15.334Z,20.87
2022-10-22T20:06:42.734Z,20.87
2022-10-22T20:09:13.786Z,20.94
2022-10-22T20:11:44.075Z,20.79
2022-10-22T20:14:13.221Z,20.79
2022-10-22T20:16:40.401Z,20.82
2022-10-22T20:19:08.819Z,20.78
2022-10-22T20:21:38.187Z,20.70
2022-10-22T20:24:23.052Z,20.64
2022-10-22T20:26:52.865Z,20.61
2022-10-22T20:29:20.839Z,20.83
2022-10-22T20:31:47.866Z,20.89
2022-10-22T20:34:14.798Z,20.81
2022-10-22T20:36:41.772Z,20.80
2022-10-22T20:39:15.321Z,20.78
2022-10-22T20:41:42.472Z,20.78
2022-10-22T20:44:15.447Z,20.73
2022-10-22T20:46:45.692Z,20.63
2022-10-22T20:49:17.499Z,20.54
2022-10-22T20:51:47.474Z,20.54
2022-10-22T20:54:15.545Z,20.54
2022-10-22T20:56:44.177Z,20.59
2022-10-22T20:59:21.806Z,20.65
2022-10-22T21:01:52.885Z,20.55
2022-10-22T21:04:21.533Z,20.76
2022-10-22T21:06:50.412Z,20.68
2022-10-22T21:09:18.385Z,20.67
2022-10-22T21:11:46.001Z,20.81
2022-10-22T21:14:14.536Z,20.69
2022-10-22T21:16:45.494Z,20.60
2022-10-22T21:19:13.084Z,20.67
2022-10-22T21:21:42.929Z,20.60
2022-10-22T21:24:10.006Z,20.64
2022-10-22T21:26:39.363Z,20.46
2022-10-22T21:29:07.450Z,20.42
2022-10-22T21:31:34.684Z,20.51
2022-10-22T21:34:01.483Z,20.38
2022-10-22T21:36:28.398Z,20.56
2022-10-22T21:38:55.304Z,20.46
2022-10-22T21:41:25.393Z,20.43
2022-10-22T21:43:52.226Z,20.27
2022-10-22T21:46:22.065Z,20.29
2022-10-22T21:48:55.987Z,20.24
2022-10-22T21:51:24.354Z,20.19
2022-10-22T21:56:22.491Z,20.31
2022-10-22T21:58:49.462Z,20.19
2022-10-22T22:01:17.406Z,20.38
2022-10-22T22:03:47.901Z,20.30
2022-10-22T22:06:22.026Z,20.24
2022-10-22T22:08:49.847Z,20.08
2022-10-22T22:11:20.210Z,20.07
2022-10-22T22:13:51.716Z,19.94
2022-10-22T22:16:27.264Z,19.90
2022-10-22T22:19:05.791Z,19.91
2022-10-22T22:21:33.847Z,19.99
2022-10-22T22:24:02.595Z,19.89
2022-10-22T22:26:30.467Z,19.90
2022-10-22T22:28:59.005Z,19.89
2022-10-22T22:31:35.333Z,19.92
2022-10-22T22:34:04.693Z,19.81
2022-10-22T22:36:40.373Z,19.98
2022-10-22T22:39:10.463Z,20.11
2022-10-22T22:41:38.365Z,20.01
2022-10-22T22:44:05.402Z,19.94
2022-10-22T22:46:32.698Z,20.12
2022-10-22T22:49:01.271Z,20.07
2022-10-22T22:51:28.177Z,20.05
2022-10-22T22:53:57.957Z,19.95
2022-10-22T22:56:26.945Z,19.98
2022-10-22T22:58:53.820Z,19.97
2022-10-22T23:01:30.535Z,20.06
2022-10-22T23:04:16.448Z,20.09
2022-10-22T23:06:43.754Z,20.11
2022-10-22T23:09:12.732Z,20.06
2022-10-22T23:11:40.803Z,20.06
2022-10-22T23:14:08.551Z,20.30
2022-10-22T23:16:39.851Z,20.60
2022-10-22T23:19:07.385Z,20.74
2022-10-22T23:21:37.630Z,20.59
2022-10-22T23:24:13.128Z,20.61
2022-10-22T23:26:46.865Z,20.50
2022-10-22T23:29:20.892Z,20.36
2022-10-22T23:31:49.124Z,20.26
2022-10-22T23:34:21.979Z,20.20
2022-10-22T23:36:49.121Z,20.20
2022-10-22T23:39:19.144Z,20.13
2022-10-22T23:41:49.086Z,19.99
2022-10-22T23:44:16.029Z,19.96
2022-10-22T23:46:43.100Z,20.11
2022-10-22T23:49:11.204Z,19.92
2022-10-22T23:51:38.700Z,19.86
2022-10-22T23:54:09.230Z,19.95
2022-10-22T23:56:36.309Z,19.95
2022-10-22T23:59:06.042Z,19.99
